Date,TemperatureHighF,TemperatureAvgF,TemperatureLowF,DewpointHighF,DewpointAvgF,DewpointLowF,HumidityHigh,HumidityAvg,HumidityLow,PressureMaxIn,PressureMinIn,WindSpeedMaxMPH,WindSpeedAvgMPH,GustSpeedMaxMPH,PrecipitationSumIn
2013-3-1,64.0,60.4,56.1,57.5,48.9,43.7,90,66,51,29.92,29.92,4,2,11,0.00
2013-3-2,60.4,54.9,46.0,45.3,42.0,38.8,86,63,47,29.92,29.92,7,2,14,0.00
2013-3-3,59.2,53.1,41.7,47.6,41.3,36.5,99,67,50,29.92,29.92,6,4,15,0.02
2013-3-4,70.5,62.0,34.0,41.6,35.6,29.7,99,41,23,29.92,29.92,6,2,11,0.02
2013-3-5,79.9,71.3,38.7,55.1,45.2,31.6,99,43,24,29.92,29.92,4,2,11,0.00
2013-3-6,77.0,66.3,49.5,63.8,46.7,34.3,99,52,29,29.92,29.92,9,3,14,0.06
2013-3-7,70.9,55.2,42.3,47.1,39.7,35.1,85,60,29,29.92,29.92,5,2,13,0.00
2013-3-8,80.1,59.3,40.6,51.6,43.5,33.1,99,64,19,29.92,29.92,6,1,10,0.00
2013-3-9,80.1,62.7,45.5,54.8,48.9,39.6,99,67,26,29.92,29.92,2,1,8,0.00
2013-3-10,82.8,67.3,54.0,58.1,53.6,50.4,92,65,38,29.92,29.92,4,1,11,0.00
2013-3-11,81.9,69.8,58.5,64.1,59.1,55.1,95,71,46,29.92,29.92,13,1,13,0.00
2013-3-12,79.2,68.1,58.3,70.1,63.7,54.9,95,86,66,29.92,29.92,7,2,17,0.00
2013-3-13,79.5,64.5,51.6,54.9,43.9,34.4,98,55,20,29.92,29.92,6,2,15,0.00
2013-3-14,75.4,58.6,44.6,48.2,35.8,21.8,94,51,15,29.92,29.92,5,1,14,0.00
2013-3-15,77.4,57.5,40.1,47.3,38.9,25.0,99,59,17,29.92,29.92,3,1,10,0.00
2013-3-16,82.8,60.3,42.3,57.3,45.7,41.0,99,65,24,29.92,29.92,4,1,10,0.00
2013-3-17,82.8,63.7,46.8,61.0,53.7,44.8,99,73,43,29.92,29.92,3,1,13,0.00
2013-3-18,81.1,67.8,59.2,69.7,64.2,56.1,99,89,64,29.92,29.92,3,1,9,0.22
2013-3-19,84.6,71.7,64.6,69.0,66.0,63.4,99,84,52,29.92,29.92,4,1,15,0.02
2013-3-20,81.9,67.3,59.9,67.0,61.6,55.9,99,85,43,29.92,29.92,8,2,17,0.07
2013-3-21,76.3,64.6,49.5,62.5,48.0,32.1,99,62,21,29.92,29.92,5,1,15,0.01
2013-3-22,83.5,63.9,44.6,68.8,56.6,42.6,97,79,55,29.92,29.92,2,0,8,0.01
2013-3-23,89.1,75.8,67.3,77.9,68.4,9.7,99,81,10,29.92,29.92,5,2,16,1.00
2013-3-24,83.5,77.7,67.1,74.2,71.4,66.0,98,82,71,29.92,29.92,8,5,18,0.00
2013-3-25,83.3,82.3,55.4,73.0,71.4,36.0,71,70,30,29.92,29.92,7,7,17,0.17
2013-3-26,66.2,55.7,46.4,47.5,38.1,28.7,93,54,31,29.97,29.92,13,4,24,0.00
2013-3-27,68.4,53.1,39.7,39.4,36.2,29.4,88,58,26,29.92,29.92,4,1,12,0.00
2013-3-28,76.6,57.2,40.6,45.9,37.8,24.4,97,57,17,29.92,29.92,4,1,9,0.00
2013-3-29,79.3,61.3,44.8,50.2,42.7,34.5,95,59,20,29.92,29.92,4,1,11,0.00
2013-3-30,57.2,55.0,49.3,56.1,53.3,45.7,99,94,73,29.92,29.92,0,0,2,0.00
2013-3-31,87.1,69.1,53.8,62.3,58.5,53.0,99,73,36,29.92,29.92,5,1,11,0.00